Naven, Sweden

8:16 AM CEST on July 30, 2014 (GMT +0200)
Orslosa, Kallstorp (IVSTRAGT16) Elev 198 ft | 58.51 °N, 12.92 °E | Change Station

Current weather conditions updated 1 minute ago

Clear
Clear
65.4 °F
Feels Like 65.4 °F
N
0.0
Wind Variable Wind from North
Gusts 0.0 mph

Today is forecast to be Cooler than yesterday.

Today
High -- | Low -- °F
--% Chance of Precip.
Yesterday
High -- | Low -- °F
Precip. -- in
4:51 AM 9:34 PM
Waxing Crescent, 10% visible
Pressure 29.74 in
Visibility 6.2 miles
Clouds
Dew Point 63 °F
Humidity 93%
Rainfall 0.00 in
Snow Depth Not available.
UV 0.0 out of 12
Pollen Not available.
Air Quality Not available.
Flu Activity Not available.
METAR ESIB 300550Z AUTO 20008KT 9999NDV NCD 18/16 Q1007

More Conditions Fewer Conditions

Pressure 29.74 in
Visibility 6.2 miles
Clouds
Dew Point 63 °F
Humidity 93%
Rainfall 0.00 in
Snow Depth Not available.
UV 0.0 out of 12
Pollen Not available.
Air Quality Not available.
Flu Activity Not available.
METAR ESIB 300550Z AUTO 20008KT 9999NDV NCD 18/16 Q1007

More Conditions Fewer Conditions

10-Day Weather Forecast

Almanac

Astronomy

Jul. 30, 2014 Rise Set
Actual Time 4:51 AM CEST 9:34 PM CEST
Civil Twilight 3:54 AM CEST 10:31 PM CEST
Nautical Twilight 2:05 AM CEST 12:15 AM CEST
Astronomical Twilight Sun does not rise Sun does not rise
Moon 9:07 AM CEST 10:02 PM CEST
Length of Visible Light 18h 36m
Length of Day
16h 42m
Tomorrow will be 4m 24s shorter.
Waxing Crescent, 10% of the Moon is Illuminated
Today
Waxing Crescent
Aug 3
First Quarter
Aug 10
Full
Aug 17
Last Quarter
Aug 25
New

Yesterday's Extremes

Country Highs Country Lows

Community

WunderPhotos

Upload Photos

1,739,007 photos uploaded!

WunderBlogs® & News

By Dr. Jeff Masters
Director of Meteorology, Weather Underground
By Kari Strenfel
Meteorologist, Weather Underground
By Christopher C. Burt
Weather Historian, Weather Underground
July 29, 2014
July 29, 2014
July 29, 2014

Nearby

Snow Depth

Not available.

Earthquake Activity

City Distance Mag. Time & Date
No recent earthquake activity has been reported nearby.
Minimum magnitude displayed is 2.5.

Coastal Water Temperatures

Place Temperature
No Stations Reporting

Nearby Weather Stations

Station Location Temp. Dew Point Humidity Wind Precip. Elev Updated Type
Orslosa, Kallstorp, Lidkoping 65.4 °F 63 °F 93% North  at  0.0 mph 0.00 in / hr 198 ft 8:15 AM CEST Normal
Vinninga 64.9 °F 62 °F 89% SSE  at  6.9 mph 0.00 in / hr 269 ft 8:16 AM CEST Rapid Fire

Show More Stations Show Fewer Stations